createdAt,value
2023-02-24T00:02:02.050Z,61.77
2023-02-24T00:04:32.092Z,62.55
2023-02-24T00:07:00.159Z,60.28
2023-02-24T00:09:30.054Z,58.53
2023-02-24T00:12:04.246Z,58.80
2023-02-24T00:14:34.562Z,58.03
2023-02-24T00:17:02.311Z,58.88
2023-02-24T00:19:34.000Z,59.45
2023-02-24T00:22:03.383Z,59.17
2023-02-24T00:24:31.167Z,61.77
2023-02-24T00:27:02.982Z,61.67
2023-02-24T00:29:32.623Z,55.60
2023-02-24T00:32:00.926Z,52.22
2023-02-24T00:34:35.263Z,54.17
2023-02-24T00:37:03.420Z,57.38
2023-02-24T00:39:30.835Z,56.08
2023-02-24T00:42:04.615Z,60.22
2023-02-24T00:44:33.000Z,50.25
2023-02-24T00:47:02.467Z,54.67
2023-02-24T00:49:29.831Z,51.30
2023-02-24T00:51:58.726Z,52.63
2023-02-24T00:54:28.439Z,50.83
2023-02-24T00:56:57.050Z,56.03
2023-02-24T00:59:26.224Z,45.90
2023-02-24T01:01:55.317Z,48.25
2023-02-24T01:04:24.491Z,50.03
2023-02-24T01:09:30.772Z,50.92
2023-02-24T01:12:22.048Z,56.47
2023-02-24T01:14:51.786Z,47.08
2023-02-24T01:17:20.479Z,52.50
2023-02-24T01:19:49.648Z,52.13
2023-02-24T01:24:47.552Z,51.08
2023-02-24T01:27:18.657Z,49.05
2023-02-24T01:29:49.410Z,51.40
2023-02-24T01:32:20.310Z,55.90
2023-02-24T01:34:51.060Z,55.00
2023-02-24T01:37:19.521Z,58.53
2023-02-24T01:39:47.834Z,61.20
2023-02-24T01:42:19.541Z,56.35
2023-02-24T01:44:47.595Z,72.22
2023-02-24T01:47:18.584Z,62.80
2023-02-24T01:49:49.054Z,68.45
2023-02-24T01:52:25.534Z,67.40
2023-02-24T01:55:01.487Z,71.93
2023-02-24T01:57:31.524Z,77.82
2023-02-24T02:00:11.214Z,71.68
2023-02-24T02:02:48.166Z,68.95
2023-02-24T02:05:16.272Z,75.28
2023-02-24T02:07:45.129Z,87.63
2023-02-24T02:10:13.489Z,80.93
2023-02-24T02:16:15.193Z,78.45
2023-02-24T02:19:06.953Z,79.60
2023-02-24T02:22:05.489Z,75.45
2023-02-24T02:24:32.965Z,75.47
2023-02-24T02:27:46.826Z,77.65
2023-02-24T02:30:23.487Z,69.13
2023-02-24T02:33:01.795Z,80.35
2023-02-24T02:36:14.356Z,72.03
2023-02-24T02:38:54.119Z,76.80
2023-02-24T02:41:29.691Z,66.32
2023-02-24T02:44:12.019Z,69.72
2023-02-24T02:46:46.545Z,69.82
2023-02-24T02:49:23.793Z,69.00
2023-02-24T02:51:58.861Z,58.28
2023-02-24T02:54:45.422Z,64.80
2023-02-24T02:57:21.677Z,64.78
2023-02-24T03:00:29.292Z,61.97
2023-02-24T03:03:03.462Z,60.75
2023-02-24T03:05:37.807Z,60.08
2023-02-24T03:08:11.418Z,55.10
2023-02-24T03:10:41.755Z,57.70
2023-02-24T03:13:13.356Z,53.38
2023-02-24T03:15:44.834Z,50.58
2023-02-24T03:18:20.286Z,47.35
2023-02-24T03:20:57.287Z,52.45
2023-02-24T03:23:31.009Z,51.60
2023-02-24T03:26:07.964Z,47.88
2023-02-24T03:28:41.685Z,43.78
2023-02-24T03:31:18.258Z,44.10
2023-02-24T03:34:20.342Z,46.13
2023-02-24T03:36:47.783Z,47.60
2023-02-24T03:39:16.720Z,42.85
2023-02-24T03:42:20.417Z,39.20
2023-02-24T03:44:48.975Z,37.42
2023-02-24T03:47:17.579Z,37.33
2023-02-24T03:49:45.610Z,31.30
2023-02-24T03:52:21.594Z,30.48
2023-02-24T03:55:16.461Z,27.05
2023-02-24T03:58:02.442Z,24.95
2023-02-24T04:00:41.223Z,24.30
2023-02-24T04:03:27.393Z,25.63
2023-02-24T04:06:23.444Z,17.40
2023-02-24T04:09:03.987Z,17.52
2023-02-24T04:11:51.750Z,16.92
2023-02-24T04:14:33.245Z,17.33
2023-02-24T04:17:10.154Z,15.98
2023-02-24T04:19:41.627Z,12.27
2023-02-24T04:22:14.556Z,12.63
2023-02-24T04:24:46.898Z,10.68
2023-02-24T04:27:16.066Z,11.55
2023-02-24T04:29:50.235Z,7.70
2023-02-24T04:32:26.137Z,8.65
2023-02-24T04:34:53.382Z,10.35
2023-02-24T04:37:23.212Z,12.63
2023-02-24T04:39:50.985Z,7.20
2023-02-24T04:42:27.617Z,8.70
2023-02-24T04:44:58.582Z,5.63
2023-02-24T04:47:29.803Z,8.13
2023-02-24T04:49:57.627Z,8.02
2023-02-24T04:52:25.368Z,8.00
2023-02-24T04:54:52.802Z,7.55
2023-02-24T04:57:20.317Z,6.75
2023-02-24T04:59:47.414Z,4.45
2023-02-24T05:02:19.691Z,4.22
2023-02-24T05:04:49.769Z,20.05
2023-02-24T05:07:17.279Z,22.08
2023-02-24T05:10:29.372Z,6.78
2023-02-24T05:14:10.969Z,39.55
2023-02-24T05:17:22.382Z,5.80
2023-02-24T05:20:10.323Z,37.25
2023-02-24T05:22:37.852Z,62.72
2023-02-24T05:25:06.875Z,20.58
2023-02-24T05:27:39.314Z,17.75
2023-02-24T05:30:09.850Z,9.80
2023-02-24T05:32:39.155Z,5.05
2023-02-24T05:35:08.687Z,6.88
2023-02-24T05:37:42.948Z,5.03
2023-02-24T05:40:15.891Z,7.00
2023-02-24T05:42:45.234Z,8.93
2023-02-24T05:45:12.787Z,6.22
2023-02-24T05:47:40.246Z,3.53
2023-02-24T05:50:09.268Z,4.82
2023-02-24T05:52:37.867Z,5.82
2023-02-24T05:55:07.216Z,4.65
2023-02-24T05:57:36.772Z,4.13
2023-02-24T06:00:24.959Z,8.40
2023-02-24T06:02:52.626Z,6.00
2023-02-24T06:05:25.914Z,7.05
2023-02-24T06:08:06.304Z,4.50
2023-02-24T06:10:34.470Z,5.07
2023-02-24T06:13:02.433Z,4.50
2023-02-24T06:15:30.471Z,4.40
2023-02-24T06:18:00.854Z,4.22
2023-02-24T06:20:32.880Z,5.07
2023-02-24T06:23:02.052Z,7.25
2023-02-24T06:25:30.020Z,8.20
2023-02-24T06:28:00.486Z,6.65
2023-02-24T06:30:28.021Z,4.55
2023-02-24T06:32:56.600Z,3.88
2023-02-24T06:35:24.110Z,5.00
2023-02-24T06:37:51.244Z,6.13
2023-02-24T06:40:18.679Z,8.20
2023-02-24T06:42:47.899Z,6.45
2023-02-24T06:45:16.645Z,5.90
2023-02-24T06:47:43.704Z,4.30
2023-02-24T06:50:12.410Z,3.55
2023-02-24T06:52:40.764Z,5.63
2023-02-24T06:55:25.388Z,4.20
2023-02-24T06:58:04.269Z,10.60
2023-02-24T07:00:38.411Z,3.78
2023-02-24T07:03:16.780Z,4.20
2023-02-24T07:06:11.117Z,5.75
2023-02-24T07:08:38.680Z,3.45
2023-02-24T07:11:07.953Z,2.83
2023-02-24T07:13:37.394Z,3.73
2023-02-24T07:16:07.298Z,7.03
2023-02-24T07:18:36.302Z,12.88
2023-02-24T07:21:11.610Z,6.85
2023-02-24T07:23:40.520Z,7.63
2023-02-24T07:26:17.043Z,19.88
2023-02-24T07:28:46.104Z,11.43
2023-02-24T07:31:17.348Z,38.78
2023-02-24T07:33:45.765Z,16.13
2023-02-24T07:36:16.230Z,11.20
2023-02-24T07:38:45.431Z,14.88
2023-02-24T07:41:15.363Z,11.50
2023-02-24T07:43:44.008Z,10.90
2023-02-24T07:46:13.696Z,9.70
2023-02-24T07:48:44.474Z,10.98
2023-02-24T07:51:17.677Z,12.13
2023-02-24T07:53:45.568Z,11.43
2023-02-24T07:56:20.977Z,10.52
2023-02-24T07:58:59.287Z,10.83
2023-02-24T08:01:29.128Z,22.27
2023-02-24T08:04:01.461Z,8.80
2023-02-24T08:06:46.221Z,12.05
2023-02-24T08:09:20.990Z,13.25
2023-02-24T08:11:54.779Z,12.88
2023-02-24T08:14:32.700Z,8.50
2023-02-24T08:17:05.345Z,19.02
2023-02-24T08:19:39.736Z,16.42
2023-02-24T08:22:19.606Z,16.35
2023-02-24T08:24:55.808Z,20.55
2023-02-24T08:27:25.800Z,8.18
2023-02-24T08:30:03.917Z,10.95
2023-02-24T08:32:43.794Z,10.05
2023-02-24T08:35:16.747Z,7.72
2023-02-24T08:37:47.385Z,12.65
2023-02-24T08:40:32.769Z,11.98
2023-02-24T08:43:19.290Z,9.10
2023-02-24T08:45:56.560Z,9.70
2023-02-24T08:48:32.265Z,12.55
2023-02-24T08:51:04.618Z,12.80
2023-02-24T08:53:32.424Z,11.82
2023-02-24T08:56:09.383Z,9.40
2023-02-24T08:58:47.267Z,11.77
2023-02-24T09:01:24.101Z,11.05
2023-02-24T09:03:55.794Z,6.30
2023-02-24T09:06:36.960Z,5.68
2023-02-24T09:09:23.356Z,7.43
2023-02-24T09:11:56.192Z,15.20
2023-02-24T09:14:36.573Z,12.48
2023-02-24T09:19:48.267Z,13.68
2023-02-24T09:22:40.593Z,18.40
2023-02-24T09:25:18.151Z,14.73
2023-02-24T09:27:55.636Z,13.77
2023-02-24T09:30:35.953Z,15.00
2023-02-24T09:33:18.332Z,14.68
2023-02-24T09:35:49.533Z,13.35
2023-02-24T09:38:19.348Z,14.77
2023-02-24T09:40:49.368Z,14.25
2023-02-24T09:43:24.494Z,13.80
2023-02-24T09:46:02.066Z,11.18
2023-02-24T09:48:43.959Z,14.00
2023-02-24T09:51:29.185Z,22.63
2023-02-24T09:53:57.225Z,10.20
2023-02-24T09:57:09.826Z,49.00
2023-02-24T10:00:01.270Z,18.85
2023-02-24T10:02:46.407Z,15.38
2023-02-24T10:05:28.480Z,11.00
2023-02-24T10:07:57.701Z,18.23
2023-02-24T10:10:35.819Z,31.70
2023-02-24T10:13:30.234Z,55.97
2023-02-24T10:16:06.152Z,39.22
2023-02-24T10:19:01.366Z,13.77
2023-02-24T10:21:49.467Z,33.25
2023-02-24T10:24:37.562Z,11.60
2023-02-24T10:27:16.773Z,8.73
2023-02-24T10:32:49.399Z,11.70
2023-02-24T10:35:21.043Z,12.75
2023-02-24T10:37:49.261Z,30.08
2023-02-24T10:40:26.585Z,17.67
2023-02-24T10:43:10.617Z,12.32
2023-02-24T10:45:47.361Z,7.70
2023-02-24T10:48:40.528Z,13.35
2023-02-24T10:51:19.789Z,29.02
2023-02-24T10:54:23.157Z,17.00
2023-02-24T10:57:10.160Z,19.02
2023-02-24T11:00:20.936Z,37.47
2023-02-24T11:03:10.398Z,17.42
2023-02-24T11:05:56.607Z,60.65
2023-02-24T11:08:42.682Z,31.73
2023-02-24T11:11:20.244Z,35.70
2023-02-24T11:14:09.362Z,18.27
2023-02-24T11:17:12.320Z,19.98
2023-02-24T11:19:45.322Z,19.98
2023-02-24T11:22:20.395Z,16.85
2023-02-24T11:24:48.645Z,18.15
2023-02-24T11:27:18.532Z,15.15
2023-02-24T11:30:06.440Z,24.27
2023-02-24T11:32:47.091Z,27.35
2023-02-24T11:35:32.933Z,24.60
2023-02-24T11:38:37.102Z,33.70
2023-02-24T11:41:27.300Z,26.13
2023-02-24T11:44:11.301Z,25.58
2023-02-24T11:46:49.849Z,19.35
2023-02-24T11:49:53.860Z,43.90
2023-02-24T11:52:30.333Z,15.30
2023-02-24T11:55:00.646Z,56.70
2023-02-24T11:57:39.355Z,16.15
2023-02-24T12:00:23.482Z,10.68
2023-02-24T12:03:18.348Z,17.27
2023-02-24T12:05:52.726Z,40.88
2023-02-24T12:08:25.948Z,26.00
2023-02-24T12:11:01.638Z,40.70
2023-02-24T12:13:36.647Z,139.55
2023-02-24T12:16:14.749Z,91.65
2023-02-24T12:19:06.513Z,48.42
2023-02-24T12:21:39.440Z,19.08
2023-02-24T12:24:12.443Z,30.10
2023-02-24T12:26:53.063Z,72.97
2023-02-24T12:29:54.673Z,13.93
2023-02-24T12:32:52.950Z,26.48
2023-02-24T12:36:15.553Z,48.17
2023-02-24T12:39:00.484Z,15.90
2023-02-24T12:41:50.942Z,20.00
2023-02-24T12:44:33.171Z,14.20
2023-02-24T12:47:11.894Z,14.95
2023-02-24T12:50:02.742Z,34.40
2023-02-24T12:52:51.334Z,19.60
2023-02-24T12:55:27.696Z,11.07
2023-02-24T12:58:25.301Z,18.80
2023-02-24T13:01:17.301Z,29.27
2023-02-24T13:04:30.545Z,30.13
2023-02-24T13:07:39.297Z,12.68
2023-02-24T13:10:45.166Z,16.15
2023-02-24T13:13:34.680Z,9.90
2023-02-24T13:18:32.416Z,12.52
2023-02-24T13:21:07.805Z,22.33
2023-02-24T13:23:36.652Z,14.35
2023-02-24T13:26:04.455Z,21.70
2023-02-24T13:28:36.248Z,15.73
2023-02-24T13:31:13.977Z,14.10
2023-02-24T13:33:44.248Z,12.10
2023-02-24T13:36:22.982Z,14.25
2023-02-24T13:38:52.580Z,14.30
2023-02-24T13:41:22.283Z,14.35
2023-02-24T13:44:22.738Z,20.38
2023-02-24T13:47:13.445Z,20.45
2023-02-24T13:50:32.095Z,20.15
2023-02-24T13:53:31.392Z,13.20
2023-02-24T13:56:27.210Z,12.80
2023-02-24T13:59:26.706Z,16.67
2023-02-24T14:02:14.446Z,21.25
2023-02-24T14:04:49.737Z,24.50
2023-02-24T14:07:23.673Z,16.60
2023-02-24T14:09:59.915Z,13.73
2023-02-24T14:12:30.775Z,19.92
2023-02-24T14:14:59.602Z,12.75
2023-02-24T14:17:37.820Z,8.27
2023-02-24T14:20:15.772Z,15.30
2023-02-24T14:22:49.832Z,11.45
2023-02-24T14:25:18.251Z,64.53
2023-02-24T14:27:48.745Z,152.13
2023-02-24T14:30:36.301Z,90.75
2023-02-24T14:33:06.091Z,123.35
2023-02-24T14:38:03.084Z,32.30
2023-02-24T14:40:31.964Z,21.92
2023-02-24T14:43:00.365Z,36.20
2023-02-24T14:45:29.259Z,19.97
2023-02-24T14:47:57.114Z,14.30
2023-02-24T14:50:31.464Z,16.60
2023-02-24T14:53:06.496Z,12.85
2023-02-24T14:55:42.114Z,29.27
2023-02-24T14:58:27.989Z,81.65
2023-02-24T15:01:06.863Z,55.45
2023-02-24T15:03:46.209Z,66.57
2023-02-24T15:06:22.888Z,75.22
2023-02-24T15:08:58.425Z,44.78
2023-02-24T15:11:29.611Z,45.63
2023-02-24T15:14:01.318Z,54.17
2023-02-24T15:16:41.769Z,35.95
2023-02-24T15:19:28.211Z,27.77
2023-02-24T15:21:56.035Z,24.33
2023-02-24T15:24:33.260Z,56.10
2023-02-24T15:27:16.068Z,53.78
2023-02-24T15:29:44.313Z,38.15
2023-02-24T15:32:19.276Z,28.42
2023-02-24T15:34:48.145Z,50.47
2023-02-24T15:37:37.582Z,64.85
2023-02-24T15:40:27.635Z,31.83
2023-02-24T15:43:07.624Z,21.38
2023-02-24T15:45:37.807Z,17.10
2023-02-24T15:48:31.347Z,19.02
2023-02-24T15:51:05.371Z,21.48
2023-02-24T15:53:33.166Z,25.80
2023-02-24T15:56:00.326Z,19.15
2023-02-24T15:58:27.755Z,30.45
2023-02-24T16:00:54.849Z,19.20
2023-02-24T16:03:22.312Z,26.40
2023-02-24T16:05:49.382Z,49.08
2023-02-24T16:08:19.559Z,27.65
2023-02-24T16:10:47.514Z,30.95
2023-02-24T16:13:19.305Z,26.38
2023-02-24T16:15:47.222Z,20.00
2023-02-24T16:18:22.236Z,21.30
2023-02-24T16:20:55.372Z,21.83
2023-02-24T16:23:25.829Z,27.00
2023-02-24T16:28:26.777Z,28.80
2023-02-24T16:30:54.422Z,121.88
2023-02-24T16:33:23.881Z,34.92
2023-02-24T16:35:53.620Z,73.07
2023-02-24T16:38:22.624Z,18.10
2023-02-24T16:40:50.440Z,14.25
2023-02-24T16:43:18.483Z,16.55
2023-02-24T16:45:46.539Z,21.15
2023-02-24T16:48:23.624Z,15.55
2023-02-24T16:50:51.911Z,17.48
2023-02-24T16:53:22.886Z,24.75
2023-02-24T16:55:50.710Z,22.48
2023-02-24T16:58:19.493Z,23.05
2023-02-24T17:00:50.096Z,18.50
2023-02-24T17:03:34.090Z,24.75
2023-02-24T17:06:01.475Z,16.85
2023-02-24T17:08:29.618Z,18.90
2023-02-24T17:10:57.111Z,23.67
2023-02-24T17:13:24.822Z,27.35
2023-02-24T17:15:57.246Z,26.63
2023-02-24T17:18:26.099Z,17.67
2023-02-24T17:20:53.943Z,20.13
2023-02-24T17:23:22.233Z,19.52
2023-02-24T17:25:56.845Z,22.30
2023-02-24T17:28:25.484Z,33.38
2023-02-24T17:30:53.289Z,43.28
2023-02-24T17:33:21.838Z,16.85
2023-02-24T17:35:49.723Z,33.30
2023-02-24T17:38:20.843Z,25.95
2023-02-24T17:40:48.518Z,23.88
2023-02-24T17:43:16.497Z,24.25
2023-02-24T17:45:45.933Z,33.38
2023-02-24T17:50:42.399Z,15.07
2023-02-24T17:53:10.389Z,22.33
2023-02-24T17:55:37.617Z,16.27
2023-02-24T17:58:05.305Z,23.02
2023-02-24T18:00:32.834Z,16.23
2023-02-24T18:03:03.266Z,18.80
2023-02-24T18:05:31.025Z,22.42
2023-02-24T18:07:59.025Z,21.85
2023-02-24T18:10:28.131Z,23.42
2023-02-24T18:12:56.205Z,23.77
2023-02-24T18:15:23.650Z,25.08
2023-02-24T18:17:51.754Z,20.15
2023-02-24T18:20:19.296Z,21.48
2023-02-24T18:22:47.156Z,19.83
2023-02-24T18:25:14.399Z,25.63
2023-02-24T18:27:43.176Z,26.85
2023-02-24T18:30:11.414Z,19.90
2023-02-24T18:32:44.532Z,36.90
2023-02-24T18:35:13.045Z,23.55
2023-02-24T18:37:41.561Z,31.58
2023-02-24T18:40:10.017Z,31.38
2023-02-24T18:42:39.976Z,28.98
2023-02-24T18:45:08.183Z,25.60
2023-02-24T18:47:36.261Z,35.60
2023-02-24T18:50:04.640Z,30.33
2023-02-24T18:52:34.967Z,26.70
2023-02-24T18:55:02.663Z,38.03
2023-02-24T18:57:31.118Z,32.97
2023-02-24T18:59:59.169Z,34.63
2023-02-24T19:02:27.521Z,37.35
2023-02-24T19:04:55.389Z,40.15
2023-02-24T19:07:23.583Z,29.00
2023-02-24T19:09:51.376Z,24.88
2023-02-24T19:12:20.661Z,28.58
2023-02-24T19:14:52.733Z,32.42
2023-02-24T19:17:21.607Z,43.20
2023-02-24T19:19:49.844Z,30.92
2023-02-24T19:22:21.403Z,29.60
2023-02-24T19:24:49.819Z,31.08
2023-02-24T19:27:17.689Z,26.63
2023-02-24T19:29:45.353Z,36.10
2023-02-24T19:32:14.817Z,27.05
2023-02-24T19:34:42.911Z,31.35
2023-02-24T19:37:10.540Z,37.42
2023-02-24T19:39:38.011Z,30.98
2023-02-24T19:42:07.109Z,25.65
2023-02-24T19:44:34.828Z,23.38
2023-02-24T19:47:03.335Z,24.80
2023-02-24T19:49:31.321Z,30.92
2023-02-24T19:52:01.700Z,16.10
2023-02-24T19:54:29.508Z,23.77
2023-02-24T19:56:58.158Z,35.80
2023-02-24T19:59:25.682Z,24.25
2023-02-24T20:01:54.544Z,29.08
2023-02-24T20:04:23.472Z,34.05
2023-02-24T20:06:51.477Z,25.75
2023-02-24T20:09:23.234Z,19.05
2023-02-24T20:11:51.400Z,24.70
2023-02-24T20:14:20.389Z,25.55
2023-02-24T20:16:49.216Z,29.77
2023-02-24T20:19:18.305Z,21.90
2023-02-24T20:21:47.589Z,30.92
2023-02-24T20:24:17.072Z,34.22
2023-02-24T20:26:47.313Z,19.83
2023-02-24T20:29:16.570Z,21.75
2023-02-24T20:31:44.460Z,26.80
2023-02-24T20:34:13.486Z,24.70
2023-02-24T20:36:42.102Z,15.65
2023-02-24T20:39:13.724Z,19.20
2023-02-24T20:41:43.206Z,21.15
2023-02-24T20:44:12.438Z,19.70
2023-02-24T20:46:40.822Z,14.07
2023-02-24T20:49:11.531Z,15.07
2023-02-24T20:51:39.821Z,26.85
2023-02-24T20:54:13.839Z,15.88
2023-02-24T20:56:44.571Z,19.05
2023-02-24T20:59:15.840Z,22.60
2023-02-24T21:01:47.289Z,15.48
2023-02-24T21:04:21.700Z,14.63
2023-02-24T21:06:52.160Z,22.92
2023-02-24T21:11:48.976Z,14.55
2023-02-24T21:14:18.120Z,25.27
2023-02-24T21:16:47.057Z,14.68
2023-02-24T21:19:15.424Z,20.67
2023-02-24T21:21:44.433Z,12.25
2023-02-24T21:24:12.738Z,14.40
2023-02-24T21:26:40.970Z,11.93
2023-02-24T21:29:09.424Z,14.65
2023-02-24T21:34:10.396Z,11.77
2023-02-24T21:36:39.816Z,17.85
2023-02-24T21:39:08.497Z,17.02
2023-02-24T21:41:37.518Z,15.30
2023-02-24T21:44:06.077Z,20.20
2023-02-24T21:46:34.982Z,16.70
2023-02-24T21:49:03.379Z,26.73
2023-02-24T21:51:31.670Z,14.55
2023-02-24T21:54:01.196Z,14.32
2023-02-24T21:56:33.366Z,19.40
2023-02-24T21:59:05.110Z,17.23
2023-02-24T22:01:36.273Z,14.05
2023-02-24T22:04:07.608Z,10.98
2023-02-24T22:06:38.631Z,11.55
2023-02-24T22:09:09.533Z,14.13
2023-02-24T22:11:41.084Z,11.80
2023-02-24T22:14:14.377Z,11.18
2023-02-24T22:16:45.229Z,13.38
2023-02-24T22:19:13.298Z,11.80
2023-02-24T22:21:42.522Z,13.85
2023-02-24T22:24:25.115Z,13.38
2023-02-24T22:26:58.499Z,10.98
2023-02-24T22:29:26.107Z,12.93
2023-02-24T22:31:54.144Z,12.30
2023-02-24T22:34:22.836Z,13.32
2023-02-24T22:36:50.906Z,12.18
2023-02-24T22:39:18.632Z,10.95
2023-02-24T22:41:47.576Z,13.52
2023-02-24T22:44:19.137Z,12.35
2023-02-24T22:46:48.382Z,13.05
2023-02-24T22:49:15.992Z,13.52
2023-02-24T22:51:43.461Z,16.50
2023-02-24T22:54:10.934Z,11.80
2023-02-24T22:56:38.712Z,17.27
2023-02-24T22:59:05.957Z,16.23
2023-02-24T23:01:36.124Z,15.25
2023-02-24T23:06:33.964Z,14.13
2023-02-24T23:09:01.863Z,14.88
2023-02-24T23:11:36.269Z,13.90
2023-02-24T23:14:06.087Z,14.82
2023-02-24T23:16:35.685Z,14.60
2023-02-24T23:19:10.592Z,18.55
2023-02-24T23:21:40.896Z,13.35
2023-02-24T23:24:10.957Z,18.85
2023-02-24T23:26:40.732Z,15.18
2023-02-24T23:29:10.275Z,13.52
2023-02-24T23:34:07.021Z,14.13
2023-02-24T23:36:36.702Z,11.07
2023-02-24T23:39:05.924Z,16.80
2023-02-24T23:41:34.422Z,14.30
2023-02-24T23:44:01.772Z,17.35
2023-02-24T23:46:29.687Z,14.00
2023-02-24T23:48:57.451Z,15.13
2023-02-24T23:51:26.729Z,17.27
2023-02-24T23:53:55.105Z,13.93
2023-02-24T23:56:25.282Z,18.52
2023-02-24T23:58:54.528Z,13.77
